sensor_id;sensor_type;location;lat;lon;timestamp;temperature;humidity
73112;HTU21D;61301;51.956;5.876;2023-04-15T00:01:27;14.60;41.78
73112;HTU21D;61301;51.956;5.876;2023-04-15T00:03:54;14.55;41.74
73112;HTU21D;61301;51.956;5.876;2023-04-15T00:06:21;14.53;42.09
73112;HTU21D;61301;51.956;5.876;2023-04-15T00:08:48;14.51;42.16
73112;HTU21D;61301;51.956;5.876;2023-04-15T00:11:16;14.48;42.31
73112;HTU21D;61301;51.956;5.876;2023-04-15T00:13:43;14.42;42.43
73112;HTU21D;61301;51.956;5.876;2023-04-15T00:16:09;14.45;42.56
73112;HTU21D;61301;51.956;5.876;2023-04-15T00:18:36;14.42;42.66
73112;HTU21D;61301;51.956;5.876;2023-04-15T00:21:03;14.48;42.71
73112;HTU21D;61301;51.956;5.876;2023-04-15T00:23:29;14.43;42.73
73112;HTU21D;61301;51.956;5.876;2023-04-15T00:25:55;14.40;42.71
73112;HTU21D;61301;51.956;5.876;2023-04-15T00:28:22;14.38;42.96
73112;HTU21D;61301;51.956;5.876;2023-04-15T00:30:47;14.34;43.06
73112;HTU21D;61301;51.956;5.876;2023-04-15T00:33:14;14.32;42.97
73112;HTU21D;61301;51.956;5.876;2023-04-15T00:35:41;14.33;42.74
73112;HTU21D;61301;51.956;5.876;2023-04-15T00:38:08;14.32;42.84
73112;HTU21D;61301;51.956;5.876;2023-04-15T00:40:34;14.33;42.84
73112;HTU21D;61301;51.956;5.876;2023-04-15T00:43:00;14.28;42.74
73112;HTU21D;61301;51.956;5.876;2023-04-15T00:45:27;14.24;42.82
73112;HTU21D;61301;51.956;5.876;2023-04-15T00:47:54;14.20;42.98
73112;HTU21D;61301;51.956;5.876;2023-04-15T00:50:20;14.17;43.07
73112;HTU21D;61301;51.956;5.876;2023-04-15T00:52:48;14.12;43.34
73112;HTU21D;61301;51.956;5.876;2023-04-15T00:55:14;14.13;43.46
73112;HTU21D;61301;51.956;5.876;2023-04-15T00:57:40;14.12;43.30
73112;HTU21D;61301;51.956;5.876;2023-04-15T01:00:08;14.09;43.61
73112;HTU21D;61301;51.956;5.876;2023-04-15T01:02:36;14.05;43.70
73112;HTU21D;61301;51.956;5.876;2023-04-15T01:05:03;13.99;43.94
73112;HTU21D;61301;51.956;5.876;2023-04-15T01:07:30;14.03;43.74
73112;HTU21D;61301;51.956;5.876;2023-04-15T01:09:57;14.01;44.00
73112;HTU21D;61301;51.956;5.876;2023-04-15T01:12:25;13.99;44.43
73112;HTU21D;61301;51.956;5.876;2023-04-15T01:14:53;13.95;44.35
73112;HTU21D;61301;51.956;5.876;2023-04-15T01:17:20;13.90;44.83
73112;HTU21D;61301;51.956;5.876;2023-04-15T01:19:46;13.81;44.97
73112;HTU21D;61301;51.956;5.876;2023-04-15T01:22:12;13.79;45.19
73112;HTU21D;61301;51.956;5.876;2023-04-15T01:24:38;13.76;45.47
73112;HTU21D;61301;51.956;5.876;2023-04-15T01:27:05;13.71;45.47
73112;HTU21D;61301;51.956;5.876;2023-04-15T01:29:32;13.71;45.41
73112;HTU21D;61301;51.956;5.876;2023-04-15T01:31:58;13.76;45.61
73112;HTU21D;61301;51.956;5.876;2023-04-15T01:34:25;13.76;45.71
73112;HTU21D;61301;51.956;5.876;2023-04-15T01:36:53;13.68;45.64
73112;HTU21D;61301;51.956;5.876;2023-04-15T01:39:20;13.71;45.87
73112;HTU21D;61301;51.956;5.876;2023-04-15T01:41:47;13.75;45.96
73112;HTU21D;61301;51.956;5.876;2023-04-15T01:44:15;13.73;46.00
73112;HTU21D;61301;51.956;5.876;2023-04-15T01:46:41;13.71;45.96
73112;HTU21D;61301;51.956;5.876;2023-04-15T01:49:07;13.68;46.18
73112;HTU21D;61301;51.956;5.876;2023-04-15T01:51:33;13.58;46.64
73112;HTU21D;61301;51.956;5.876;2023-04-15T01:53:59;13.56;46.70
73112;HTU21D;61301;51.956;5.876;2023-04-15T01:56:25;13.56;47.05
73112;HTU21D;61301;51.956;5.876;2023-04-15T01:58:51;13.52;47.00
73112;HTU21D;61301;51.956;5.876;2023-04-15T02:01:17;13.52;46.84
73112;HTU21D;61301;51.956;5.876;2023-04-15T02:03:47;13.50;47.11
73112;HTU21D;61301;51.956;5.876;2023-04-15T02:06:14;13.47;47.18
73112;HTU21D;61301;51.956;5.876;2023-04-15T02:08:40;13.44;47.34
73112;HTU21D;61301;51.956;5.876;2023-04-15T02:11:07;13.43;47.54
73112;HTU21D;61301;51.956;5.876;2023-04-15T02:13:33;13.41;47.57
73112;HTU21D;61301;51.956;5.876;2023-04-15T02:15:59;13.40;47.43
73112;HTU21D;61301;51.956;5.876;2023-04-15T02:18:25;13.38;47.45
73112;HTU21D;61301;51.956;5.876;2023-04-15T02:20:52;13.37;47.68
73112;HTU21D;61301;51.956;5.876;2023-04-15T02:23:18;13.34;47.69
73112;HTU21D;61301;51.956;5.876;2023-04-15T02:25:44;13.36;47.60
73112;HTU21D;61301;51.956;5.876;2023-04-15T02:28:10;13.36;47.83
73112;HTU21D;61301;51.956;5.876;2023-04-15T02:30:36;13.33;47.81
73112;HTU21D;61301;51.956;5.876;2023-04-15T02:33:02;13.32;47.81
73112;HTU21D;61301;51.956;5.876;2023-04-15T02:35:28;13.29;48.12
73112;HTU21D;61301;51.956;5.876;2023-04-15T02:37:55;13.25;48.20
73112;HTU21D;61301;51.956;5.876;2023-04-15T02:40:21;13.25;48.53
73112;HTU21D;61301;51.956;5.876;2023-04-15T02:42:47;13.22;48.66
73112;HTU21D;61301;51.956;5.876;2023-04-15T02:45:15;13.20;48.83
73112;HTU21D;61301;51.956;5.876;2023-04-15T02:47:43;13.16;49.15
73112;HTU21D;61301;51.956;5.876;2023-04-15T02:50:11;13.16;49.19
73112;HTU21D;61301;51.956;5.876;2023-04-15T02:52:40;13.11;49.40
73112;HTU21D;61301;51.956;5.876;2023-04-15T02:55:10;13.12;49.18
73112;HTU21D;61301;51.956;5.876;2023-04-15T02:57:37;13.08;49.39
73112;HTU21D;61301;51.956;5.876;2023-04-15T03:00:07;13.14;49.57
73112;HTU21D;61301;51.956;5.876;2023-04-15T03:02:38;13.06;49.75
73112;HTU21D;61301;51.956;5.876;2023-04-15T03:05:04;13.06;49.67
73112;HTU21D;61301;51.956;5.876;2023-04-15T03:07:32;13.04;49.57
73112;HTU21D;61301;51.956;5.876;2023-04-15T03:09:59;13.04;49.93
73112;HTU21D;61301;51.956;5.876;2023-04-15T03:12:25;13.02;49.93
73112;HTU21D;61301;51.956;5.876;2023-04-15T03:14:54;13.01;49.97
73112;HTU21D;61301;51.956;5.876;2023-04-15T03:17:26;12.96;50.21
73112;HTU21D;61301;51.956;5.876;2023-04-15T03:19:53;12.94;50.21
73112;HTU21D;61301;51.956;5.876;2023-04-15T03:22:19;12.96;50.11
73112;HTU21D;61301;51.956;5.876;2023-04-15T03:24:45;12.95;50.18
73112;HTU21D;61301;51.956;5.876;2023-04-15T03:27:11;12.94;50.38
73112;HTU21D;61301;51.956;5.876;2023-04-15T03:29:38;12.92;50.41
73112;HTU21D;61301;51.956;5.876;2023-04-15T03:32:04;12.91;50.31
73112;HTU21D;61301;51.956;5.876;2023-04-15T03:34:33;12.88;50.53
73112;HTU21D;61301;51.956;5.876;2023-04-15T03:36:59;12.88;50.85
73112;HTU21D;61301;51.956;5.876;2023-04-15T03:39:25;12.84;50.87
73112;HTU21D;61301;51.956;5.876;2023-04-15T03:41:52;12.85;50.93
73112;HTU21D;61301;51.956;5.876;2023-04-15T03:44:17;12.78;51.20
73112;HTU21D;61301;51.956;5.876;2023-04-15T03:46:43;12.76;51.14
73112;HTU21D;61301;51.956;5.876;2023-04-15T03:49:09;12.75;51.23
73112;HTU21D;61301;51.956;5.876;2023-04-15T03:51:35;12.74;51.26
73112;HTU21D;61301;51.956;5.876;2023-04-15T03:54:02;12.74;51.16
73112;HTU21D;61301;51.956;5.876;2023-04-15T03:56:28;12.71;51.24
73112;HTU21D;61301;51.956;5.876;2023-04-15T03:58:53;12.75;51.26
73112;HTU21D;61301;51.956;5.876;2023-04-15T04:01:19;12.67;51.64
73112;HTU21D;61301;51.956;5.876;2023-04-15T04:03:48;12.72;51.59
73112;HTU21D;61301;51.956;5.876;2023-04-15T04:06:14;12.73;51.35
73112;HTU21D;61301;51.956;5.876;2023-04-15T04:08:41;12.73;51.01
73112;HTU21D;61301;51.956;5.876;2023-04-15T04:11:07;12.71;51.15
73112;HTU21D;61301;51.956;5.876;2023-04-15T04:13:33;12.67;51.20
73112;HTU21D;61301;51.956;5.876;2023-04-15T04:15:59;12.65;51.17
73112;HTU21D;61301;51.956;5.876;2023-04-15T04:18:25;12.63;51.11
73112;HTU21D;61301;51.956;5.876;2023-04-15T04:20:51;12.69;50.84
73112;HTU21D;61301;51.956;5.876;2023-04-15T04:23:17;12.64;51.13
73112;HTU21D;61301;51.956;5.876;2023-04-15T04:25:43;12.64;51.30
73112;HTU21D;61301;51.956;5.876;2023-04-15T04:28:09;12.61;51.17
73112;HTU21D;61301;51.956;5.876;2023-04-15T04:30:42;12.67;51.23
73112;HTU21D;61301;51.956;5.876;2023-04-15T04:33:08;12.65;51.21
73112;HTU21D;61301;51.956;5.876;2023-04-15T04:35:34;12.71;51.24
73112;HTU21D;61301;51.956;5.876;2023-04-15T04:38:03;12.52;51.62
73112;HTU21D;61301;51.956;5.876;2023-04-15T04:40:29;12.45;51.78
73112;HTU21D;61301;51.956;5.876;2023-04-15T04:42:55;12.44;51.95
73112;HTU21D;61301;51.956;5.876;2023-04-15T04:45:21;12.41;52.08
73112;HTU21D;61301;51.956;5.876;2023-04-15T04:47:47;12.37;51.95
73112;HTU21D;61301;51.956;5.876;2023-04-15T04:50:13;12.36;51.89
73112;HTU21D;61301;51.956;5.876;2023-04-15T04:52:39;12.37;51.75
73112;HTU21D;61301;51.956;5.876;2023-04-15T04:55:05;12.33;52.19
73112;HTU21D;61301;51.956;5.876;2023-04-15T04:57:33;12.33;52.34
73112;HTU21D;61301;51.956;5.876;2023-04-15T05:00:05;12.29;52.38
73112;HTU21D;61301;51.956;5.876;2023-04-15T05:02:33;12.25;52.65
73112;HTU21D;61301;51.956;5.876;2023-04-15T05:04:59;12.28;52.40
73112;HTU21D;61301;51.956;5.876;2023-04-15T05:07:26;12.27;52.36
73112;HTU21D;61301;51.956;5.876;2023-04-15T05:09:52;12.25;52.78
73112;HTU21D;61301;51.956;5.876;2023-04-15T05:12:18;12.23;52.65
73112;HTU21D;61301;51.956;5.876;2023-04-15T05:14:44;12.26;52.61
73112;HTU21D;61301;51.956;5.876;2023-04-15T05:17:11;12.22;52.79
73112;HTU21D;61301;51.956;5.876;2023-04-15T05:19:37;12.21;52.63
73112;HTU21D;61301;51.956;5.876;2023-04-15T05:22:03;12.23;52.67
73112;HTU21D;61301;51.956;5.876;2023-04-15T05:24:29;12.23;52.86
73112;HTU21D;61301;51.956;5.876;2023-04-15T05:26:55;12.28;53.07
73112;HTU21D;61301;51.956;5.876;2023-04-15T05:29:21;12.27;52.94
73112;HTU21D;61301;51.956;5.876;2023-04-15T05:31:47;12.31;52.84
73112;HTU21D;61301;51.956;5.876;2023-04-15T05:34:13;12.35;53.05
73112;HTU21D;61301;51.956;5.876;2023-04-15T05:36:41;12.34;52.98
73112;HTU21D;61301;51.956;5.876;2023-04-15T05:39:07;12.37;53.35
73112;HTU21D;61301;51.956;5.876;2023-04-15T05:41:33;12.37;53.88
73112;HTU21D;61301;51.956;5.876;2023-04-15T05:43:59;12.36;53.60
73112;HTU21D;61301;51.956;5.876;2023-04-15T05:46:26;12.38;53.95
73112;HTU21D;61301;51.956;5.876;2023-04-15T05:48:52;12.41;54.32
73112;HTU21D;61301;51.956;5.876;2023-04-15T05:51:18;12.48;54.26
73112;HTU21D;61301;51.956;5.876;2023-04-15T05:53:44;12.56;54.14
73112;HTU21D;61301;51.956;5.876;2023-04-15T05:56:10;12.62;54.21
73112;HTU21D;61301;51.956;5.876;2023-04-15T05:58:36;12.70;53.97
73112;HTU21D;61301;51.956;5.876;2023-04-15T06:01:03;12.81;53.78
73112;HTU21D;61301;51.956;5.876;2023-04-15T06:03:29;12.96;53.68
73112;HTU21D;61301;51.956;5.876;2023-04-15T06:05:55;13.05;53.44
73112;HTU21D;61301;51.956;5.876;2023-04-15T06:08:21;13.14;53.42
73112;HTU21D;61301;51.956;5.876;2023-04-15T06:10:47;13.25;53.12
73112;HTU21D;61301;51.956;5.876;2023-04-15T06:13:13;13.41;52.98
73112;HTU21D;61301;51.956;5.876;2023-04-15T06:15:39;13.45;52.88
73112;HTU21D;61301;51.956;5.876;2023-04-15T06:18:05;13.53;52.59
73112;HTU21D;61301;51.956;5.876;2023-04-15T06:20:31;13.64;52.40
73112;HTU21D;61301;51.956;5.876;2023-04-15T06:22:57;13.67;52.46
73112;HTU21D;61301;51.956;5.876;2023-04-15T06:25:23;13.67;52.54
73112;HTU21D;61301;51.956;5.876;2023-04-15T06:27:49;13.63;52.65
73112;HTU21D;61301;51.956;5.876;2023-04-15T06:30:15;13.64;52.74
73112;HTU21D;61301;51.956;5.876;2023-04-15T06:32:41;13.74;52.56
73112;HTU21D;61301;51.956;5.876;2023-04-15T06:35:08;13.81;52.39
73112;HTU21D;61301;51.956;5.876;2023-04-15T06:37:34;13.88;52.33
73112;HTU21D;61301;51.956;5.876;2023-04-15T06:40:00;13.89;52.34
73112;HTU21D;61301;51.956;5.876;2023-04-15T06:42:26;13.96;52.16
73112;HTU21D;61301;51.956;5.876;2023-04-15T06:44:52;14.03;52.10
73112;HTU21D;61301;51.956;5.876;2023-04-15T06:47:18;14.06;51.92
73112;HTU21D;61301;51.956;5.876;2023-04-15T06:49:44;14.10;51.84
73112;HTU21D;61301;51.956;5.876;2023-04-15T06:52:10;14.17;51.64
73112;HTU21D;61301;51.956;5.876;2023-04-15T06:54:37;14.20;51.46
73112;HTU21D;61301;51.956;5.876;2023-04-15T06:57:03;14.29;51.15
73112;HTU21D;61301;51.956;5.876;2023-04-15T06:59:29;14.29;50.93
73112;HTU21D;61301;51.956;5.876;2023-04-15T07:01:55;14.29;50.59
73112;HTU21D;61301;51.956;5.876;2023-04-15T07:04:21;14.29;50.24
73112;HTU21D;61301;51.956;5.876;2023-04-15T07:06:47;14.26;50.23
73112;HTU21D;61301;51.956;5.876;2023-04-15T07:09:14;14.26;50.23
73112;HTU21D;61301;51.956;5.876;2023-04-15T07:11:40;14.24;50.18
73112;HTU21D;61301;51.956;5.876;2023-04-15T07:14:06;14.27;50.27
73112;HTU21D;61301;51.956;5.876;2023-04-15T07:16:32;14.26;50.21
73112;HTU21D;61301;51.956;5.876;2023-04-15T07:18:58;14.30;50.02
73112;HTU21D;61301;51.956;5.876;2023-04-15T07:21:24;14.30;49.82
73112;HTU21D;61301;51.956;5.876;2023-04-15T07:23:50;14.28;49.71
73112;HTU21D;61301;51.956;5.876;2023-04-15T07:26:16;14.24;49.71
73112;HTU21D;61301;51.956;5.876;2023-04-15T07:28:42;14.26;49.69
73112;HTU21D;61301;51.956;5.876;2023-04-15T07:31:08;14.22;49.47
73112;HTU21D;61301;51.956;5.876;2023-04-15T07:33:34;14.18;49.49
73112;HTU21D;61301;51.956;5.876;2023-04-15T07:36:02;14.19;49.50
73112;HTU21D;61301;51.956;5.876;2023-04-15T07:38:27;14.21;49.61
73112;HTU21D;61301;51.956;5.876;2023-04-15T07:40:54;14.15;49.60
73112;HTU21D;61301;51.956;5.876;2023-04-15T07:43:21;14.13;49.77
73112;HTU21D;61301;51.956;5.876;2023-04-15T07:45:47;14.17;50.05
73112;HTU21D;61301;51.956;5.876;2023-04-15T07:48:13;14.17;49.71
73112;HTU21D;61301;51.956;5.876;2023-04-15T07:50:39;14.21;49.71
73112;HTU21D;61301;51.956;5.876;2023-04-15T07:53:05;14.17;49.67
73112;HTU21D;61301;51.956;5.876;2023-04-15T07:55:32;14.17;49.63
73112;HTU21D;61301;51.956;5.876;2023-04-15T07:57:58;14.12;49.82
73112;HTU21D;61301;51.956;5.876;2023-04-15T08:00:24;14.11;49.89
73112;HTU21D;61301;51.956;5.876;2023-04-15T08:02:51;14.14;49.82
73112;HTU21D;61301;51.956;5.876;2023-04-15T08:05:18;14.24;49.95
73112;HTU21D;61301;51.956;5.876;2023-04-15T08:07:44;14.33;49.70
73112;HTU21D;61301;51.956;5.876;2023-04-15T08:10:11;14.53;49.47
73112;HTU21D;61301;51.956;5.876;2023-04-15T08:12:37;14.65;49.18
73112;HTU21D;61301;51.956;5.876;2023-04-15T08:15:03;14.74;48.99
73112;HTU21D;61301;51.956;5.876;2023-04-15T08:17:30;14.87;48.47
73112;HTU21D;61301;51.956;5.876;2023-04-15T08:19:56;14.97;48.20
73112;HTU21D;61301;51.956;5.876;2023-04-15T08:22:22;15.06;48.13
73112;HTU21D;61301;51.956;5.876;2023-04-15T08:24:48;15.18;48.12
73112;HTU21D;61301;51.956;5.876;2023-04-15T08:27:14;15.31;47.44
73112;HTU21D;61301;51.956;5.876;2023-04-15T08:29:40;15.33;47.08
73112;HTU21D;61301;51.956;5.876;2023-04-15T08:32:06;15.46;46.82
73112;HTU21D;61301;51.956;5.876;2023-04-15T08:34:32;15.54;46.76
73112;HTU21D;61301;51.956;5.876;2023-04-15T08:36:59;15.63;46.79
73112;HTU21D;61301;51.956;5.876;2023-04-15T08:39:25;15.73;46.73
73112;HTU21D;61301;51.956;5.876;2023-04-15T08:42:02;15.86;46.27
73112;HTU21D;61301;51.956;5.876;2023-04-15T08:44:29;15.92;45.72
73112;HTU21D;61301;51.956;5.876;2023-04-15T08:47:00;15.96;44.93
73112;HTU21D;61301;51.956;5.876;2023-04-15T08:49:26;16.03;45.16
73112;HTU21D;61301;51.956;5.876;2023-04-15T08:51:54;16.10;45.01
73112;HTU21D;61301;51.956;5.876;2023-04-15T08:54:21;16.13;44.82
73112;HTU21D;61301;51.956;5.876;2023-04-15T08:56:47;16.05;44.84
73112;HTU21D;61301;51.956;5.876;2023-04-15T08:59:14;16.02;44.85
73112;HTU21D;61301;51.956;5.876;2023-04-15T09:01:41;16.03;44.52
73112;HTU21D;61301;51.956;5.876;2023-04-15T09:04:07;15.98;44.58
73112;HTU21D;61301;51.956;5.876;2023-04-15T09:06:33;15.98;44.93
73112;HTU21D;61301;51.956;5.876;2023-04-15T09:08:59;16.05;45.16
73112;HTU21D;61301;51.956;5.876;2023-04-15T09:11:25;16.16;45.21
73112;HTU21D;61301;51.956;5.876;2023-04-15T09:13:51;16.28;45.28
73112;HTU21D;61301;51.956;5.876;2023-04-15T09:16:17;16.33;44.59
73112;HTU21D;61301;51.956;5.876;2023-04-15T09:18:47;16.32;44.24
73112;HTU21D;61301;51.956;5.876;2023-04-15T09:21:16;16.30;44.13
73112;HTU21D;61301;51.956;5.876;2023-04-15T09:23:59;16.44;44.56
73112;HTU21D;61301;51.956;5.876;2023-04-15T09:26:36;16.58;44.43
73112;HTU21D;61301;51.956;5.876;2023-04-15T09:29:09;16.64;44.79
73112;HTU21D;61301;51.956;5.876;2023-04-15T09:31:36;16.70;44.64
73112;HTU21D;61301;51.956;5.876;2023-04-15T09:34:02;16.76;44.29
73112;HTU21D;61301;51.956;5.876;2023-04-15T09:36:52;16.80;43.77
73112;HTU21D;61301;51.956;5.876;2023-04-15T09:39:18;16.81;44.18
73112;HTU21D;61301;51.956;5.876;2023-04-15T09:41:44;16.95;44.06
73112;HTU21D;61301;51.956;5.876;2023-04-15T09:44:26;17.08;43.39
73112;HTU21D;61301;51.956;5.876;2023-04-15T09:46:52;17.14;43.46
73112;HTU21D;61301;51.956;5.876;2023-04-15T09:49:18;17.19;43.04
73112;HTU21D;61301;51.956;5.876;2023-04-15T09:51:45;17.16;43.17
73112;HTU21D;61301;51.956;5.876;2023-04-15T09:54:11;17.20;42.87
73112;HTU21D;61301;51.956;5.876;2023-04-15T09:56:38;17.26;43.22
73112;HTU21D;61301;51.956;5.876;2023-04-15T09:59:08;17.37;43.18
73112;HTU21D;61301;51.956;5.876;2023-04-15T10:01:34;17.46;42.94
73112;HTU21D;61301;51.956;5.876;2023-04-15T10:04:04;17.52;42.61
73112;HTU21D;61301;51.956;5.876;2023-04-15T10:06:31;17.59;41.65
73112;HTU21D;61301;51.956;5.876;2023-04-15T10:08:58;17.59;42.11
73112;HTU21D;61301;51.956;5.876;2023-04-15T10:11:27;17.76;42.07
73112;HTU21D;61301;51.956;5.876;2023-04-15T10:13:55;17.95;42.22
73112;HTU21D;61301;51.956;5.876;2023-04-15T10:16:25;18.07;41.68
73112;HTU21D;61301;51.956;5.876;2023-04-15T10:18:56;18.19;41.78
73112;HTU21D;61301;51.956;5.876;2023-04-15T10:21:22;18.37;41.62
73112;HTU21D;61301;51.956;5.876;2023-04-15T10:23:49;18.50;41.22
73112;HTU21D;61301;51.956;5.876;2023-04-15T10:26:16;18.80;41.11
73112;HTU21D;61301;51.956;5.876;2023-04-15T10:28:43;18.94;40.39
73112;HTU21D;61301;51.956;5.876;2023-04-15T10:31:13;19.15;40.15
73112;HTU21D;61301;51.956;5.876;2023-04-15T10:33:43;19.21;39.14
73112;HTU21D;61301;51.956;5.876;2023-04-15T10:36:09;19.27;39.20
73112;HTU21D;61301;51.956;5.876;2023-04-15T10:38:41;19.42;38.62
73112;HTU21D;61301;51.956;5.876;2023-04-15T10:41:21;19.51;38.82
73112;HTU21D;61301;51.956;5.876;2023-04-15T10:46:23;19.83;38.58
73112;HTU21D;61301;51.956;5.876;2023-04-15T10:49:12;19.77;38.52
73112;HTU21D;61301;51.956;5.876;2023-04-15T10:51:40;19.65;38.30
73112;HTU21D;61301;51.956;5.876;2023-04-15T10:54:33;19.51;38.65
73112;HTU21D;61301;51.956;5.876;2023-04-15T10:59:31;19.40;39.24
73112;HTU21D;61301;51.956;5.876;2023-04-15T11:02:02;19.50;38.54
73112;HTU21D;61301;51.956;5.876;2023-04-15T11:04:51;19.56;36.95
73112;HTU21D;61301;51.956;5.876;2023-04-15T11:07:36;19.66;37.72
73112;HTU21D;61301;51.956;5.876;2023-04-15T11:12:57;19.74;38.29
73112;HTU21D;61301;51.956;5.876;2023-04-15T11:20:38;19.60;38.49
73112;HTU21D;61301;51.956;5.876;2023-04-15T11:23:04;19.62;37.75
73112;HTU21D;61301;51.956;5.876;2023-04-15T11:25:32;19.53;36.69
73112;HTU21D;61301;51.956;5.876;2023-04-15T11:28:02;19.55;36.67
73112;HTU21D;61301;51.956;5.876;2023-04-15T11:30:31;19.70;37.28
73112;HTU21D;61301;51.956;5.876;2023-04-15T11:33:01;20.01;36.96
73112;HTU21D;61301;51.956;5.876;2023-04-15T11:35:28;20.13;36.83
73112;HTU21D;61301;51.956;5.876;2023-04-15T11:37:54;20.27;36.73
73112;HTU21D;61301;51.956;5.876;2023-04-15T11:40:25;20.28;37.08
73112;HTU21D;61301;51.956;5.876;2023-04-15T11:43:11;20.15;36.73
73112;HTU21D;61301;51.956;5.876;2023-04-15T11:45:47;19.88;36.50
73112;HTU21D;61301;51.956;5.876;2023-04-15T11:48:13;19.80;36.80
73112;HTU21D;61301;51.956;5.876;2023-04-15T11:50:39;19.91;35.86
73112;HTU21D;61301;51.956;5.876;2023-04-15T11:53:08;20.05;35.83
73112;HTU21D;61301;51.956;5.876;2023-04-15T11:55:46;20.27;35.03
73112;HTU21D;61301;51.956;5.876;2023-04-15T11:58:13;20.49;35.02
73112;HTU21D;61301;51.956;5.876;2023-04-15T12:13:54;20.62;34.83
73112;HTU21D;61301;51.956;5.876;2023-04-15T12:16:22;20.61;34.63
73112;HTU21D;61301;51.956;5.876;2023-04-15T12:18:55;20.58;35.37
73112;HTU21D;61301;51.956;5.876;2023-04-15T12:21:22;20.75;35.53
73112;HTU21D;61301;51.956;5.876;2023-04-15T12:23:54;20.93;34.69
73112;HTU21D;61301;51.956;5.876;2023-04-15T12:26:28;21.17;34.24
73112;HTU21D;61301;51.956;5.876;2023-04-15T12:29:05;21.27;33.17
73112;HTU21D;61301;51.956;5.876;2023-04-15T12:31:34;21.03;33.96
73112;HTU21D;61301;51.956;5.876;2023-04-15T12:34:06;20.89;34.75
73112;HTU21D;61301;51.956;5.876;2023-04-15T12:36:33;20.90;35.14
73112;HTU21D;61301;51.956;5.876;2023-04-15T12:39:03;21.07;34.93
73112;HTU21D;61301;51.956;5.876;2023-04-15T12:41:30;21.30;34.59
73112;HTU21D;61301;51.956;5.876;2023-04-15T12:43:56;21.33;33.96
73112;HTU21D;61301;51.956;5.876;2023-04-15T12:46:22;21.21;33.78
73112;HTU21D;61301;51.956;5.876;2023-04-15T12:48:49;21.17;34.56
73112;HTU21D;61301;51.956;5.876;2023-04-15T12:51:19;21.18;35.16
73112;HTU21D;61301;51.956;5.876;2023-04-15T12:53:51;21.15;35.02
73112;HTU21D;61301;51.956;5.876;2023-04-15T12:56:17;20.94;36.05
73112;HTU21D;61301;51.956;5.876;2023-04-15T12:58:43;20.69;35.90
73112;HTU21D;61301;51.956;5.876;2023-04-15T13:01:09;20.55;36.37
73112;HTU21D;61301;51.956;5.876;2023-04-15T13:03:36;20.50;36.33
73112;HTU21D;61301;51.956;5.876;2023-04-15T13:06:02;20.59;36.14
73112;HTU21D;61301;51.956;5.876;2023-04-15T13:08:30;20.69;36.37
73112;HTU21D;61301;51.956;5.876;2023-04-15T13:10:56;20.63;35.69
73112;HTU21D;61301;51.956;5.876;2023-04-15T13:13:22;20.69;36.34
73112;HTU21D;61301;51.956;5.876;2023-04-15T13:15:48;20.74;35.84
73112;HTU21D;61301;51.956;5.876;2023-04-15T13:18:14;20.73;35.82
73112;HTU21D;61301;51.956;5.876;2023-04-15T13:20:40;20.72;36.30
73112;HTU21D;61301;51.956;5.876;2023-04-15T13:23:06;20.73;36.39
73112;HTU21D;61301;51.956;5.876;2023-04-15T13:25:32;20.78;36.21
73112;HTU21D;61301;51.956;5.876;2023-04-15T13:27:58;20.72;36.05
73112;HTU21D;61301;51.956;5.876;2023-04-15T13:30:26;20.61;36.26
73112;HTU21D;61301;51.956;5.876;2023-04-15T13:32:52;20.50;36.27
73112;HTU21D;61301;51.956;5.876;2023-04-15T13:35:19;20.31;36.18
73112;HTU21D;61301;51.956;5.876;2023-04-15T13:37:46;20.14;36.75
73112;HTU21D;61301;51.956;5.876;2023-04-15T13:40:12;20.03;37.05
73112;HTU21D;61301;51.956;5.876;2023-04-15T13:42:38;20.07;37.26
73112;HTU21D;61301;51.956;5.876;2023-04-15T13:45:04;20.33;37.04
73112;HTU21D;61301;51.956;5.876;2023-04-15T13:47:31;20.63;36.52
73112;HTU21D;61301;51.956;5.876;2023-04-15T13:49:57;20.77;35.83
73112;HTU21D;61301;51.956;5.876;2023-04-15T13:52:22;20.84;35.82
73112;HTU21D;61301;51.956;5.876;2023-04-15T13:54:49;20.84;36.03
73112;HTU21D;61301;51.956;5.876;2023-04-15T13:57:15;20.78;35.77
73112;HTU21D;61301;51.956;5.876;2023-04-15T13:59:41;20.73;36.23
73112;HTU21D;61301;51.956;5.876;2023-04-15T14:02:09;20.68;36.10
73112;HTU21D;61301;51.956;5.876;2023-04-15T14:04:35;20.60;36.21
73112;HTU21D;61301;51.956;5.876;2023-04-15T14:07:01;20.42;36.27
73112;HTU21D;61301;51.956;5.876;2023-04-15T14:09:28;20.28;36.72
73112;HTU21D;61301;51.956;5.876;2023-04-15T14:11:54;20.22;36.92
73112;HTU21D;61301;51.956;5.876;2023-04-15T14:14:21;20.17;37.08
73112;HTU21D;61301;51.956;5.876;2023-04-15T14:16:47;20.02;37.11
73112;HTU21D;61301;51.956;5.876;2023-04-15T14:19:13;19.81;37.21
73112;HTU21D;61301;51.956;5.876;2023-04-15T14:21:39;19.54;37.73
73112;HTU21D;61301;51.956;5.876;2023-04-15T14:24:06;19.41;38.14
73112;HTU21D;61301;51.956;5.876;2023-04-15T14:26:32;19.29;38.19
73112;HTU21D;61301;51.956;5.876;2023-04-15T14:28:58;19.15;38.46
73112;HTU21D;61301;51.956;5.876;2023-04-15T14:31:24;19.16;39.00
73112;HTU21D;61301;51.956;5.876;2023-04-15T14:33:50;19.17;39.05
73112;HTU21D;61301;51.956;5.876;2023-04-15T14:36:16;19.11;39.37
73112;HTU21D;61301;51.956;5.876;2023-04-15T14:38:42;19.11;39.75
73112;HTU21D;61301;51.956;5.876;2023-04-15T14:41:08;18.94;39.55
73112;HTU21D;61301;51.956;5.876;2023-04-15T14:43:35;18.82;40.04
73112;HTU21D;61301;51.956;5.876;2023-04-15T14:46:01;18.87;40.13
73112;HTU21D;61301;51.956;5.876;2023-04-15T14:48:27;18.85;39.97
73112;HTU21D;61301;51.956;5.876;2023-04-15T14:50:53;18.76;39.98
73112;HTU21D;61301;51.956;5.876;2023-04-15T14:53:19;18.68;40.20
73112;HTU21D;61301;51.956;5.876;2023-04-15T14:55:45;18.74;40.49
73112;HTU21D;61301;51.956;5.876;2023-04-15T14:58:11;18.68;40.24
73112;HTU21D;61301;51.956;5.876;2023-04-15T15:00:38;18.63;40.58
73112;HTU21D;61301;51.956;5.876;2023-04-15T15:03:10;18.67;40.80
73112;HTU21D;61301;51.956;5.876;2023-04-15T15:05:40;18.59;40.62
73112;HTU21D;61301;51.956;5.876;2023-04-15T15:08:07;18.46;41.02
73112;HTU21D;61301;51.956;5.876;2023-04-15T15:10:34;18.29;41.32
73112;HTU21D;61301;51.956;5.876;2023-04-15T15:13:06;18.32;41.50
73112;HTU21D;61301;51.956;5.876;2023-04-15T15:15:33;18.28;41.13
73112;HTU21D;61301;51.956;5.876;2023-04-15T15:17:59;18.33;41.22
73112;HTU21D;61301;51.956;5.876;2023-04-15T15:20:29;18.24;40.81
73112;HTU21D;61301;51.956;5.876;2023-04-15T15:22:55;18.10;41.25
73112;HTU21D;61301;51.956;5.876;2023-04-15T15:25:21;18.13;41.47
73112;HTU21D;61301;51.956;5.876;2023-04-15T15:27:48;18.10;41.46
73112;HTU21D;61301;51.956;5.876;2023-04-15T15:30:14;18.04;41.80
73112;HTU21D;61301;51.956;5.876;2023-04-15T15:32:41;18.09;41.72
73112;HTU21D;61301;51.956;5.876;2023-04-15T15:35:08;18.11;41.80
73112;HTU21D;61301;51.956;5.876;2023-04-15T15:37:34;18.14;41.82
73112;HTU21D;61301;51.956;5.876;2023-04-15T15:40:03;18.13;41.97
73112;HTU21D;61301;51.956;5.876;2023-04-15T15:42:33;18.15;41.92